Willcox, AZ (85643)

9:38 PM MST on August 01, 2015 (GMT -0700)
14 miles North West of Willcox | | Change Station
CLOSE
Current Station
Personal Weather Station
Location: Willcox, AZ
Elevation: 4275 ft
Nearby Weather Stations

Elev 4275 ft 32.38 °N, 109.95 °W | Updated 18 seconds ago

Partly Cloudy
Partly Cloudy
69.4 °F
Feels Like 69.4 °F
N
2.9
Wind Variable Wind from South
Gusts 5.0 mph

Today
High -- | Low -- °F
--% Chance of Precip.
Yesterday
High -- | Low -- °F
Precip. -- in
5:34 AM 7:17 PM
Waning Gibbous, 96% visible
Pressure 29.79 in
Visibility 10.0 miles
Clouds Clear
Dew Point 64 °F
Humidity 82%
Rainfall 0.00 in
Snow Depth Not available.
UV 0 out of 12
Pollen 3.60 out of 12
Air Quality Not available.
Flu Activity Not available.
METAR KSAD 020351Z AUTO 10008KT 10SM CLR 30/15 A2996 RMK AO2 SLP088 T03000150

More Conditions Fewer Conditions

Pressure 29.79 in
Visibility 10.0 miles
Clouds Clear
Dew Point 64 °F
Humidity 82%
Rainfall 0.00 in
Snow Depth Not available.
UV 0 out of 12
Pollen 3.60 out of 12
Air Quality Not available.
Flu Activity Not available.
METAR KSAD 020351Z AUTO 10008KT 10SM CLR 30/15 A2996 RMK AO2 SLP088 T03000150

More Conditions Fewer Conditions

Nowcast | as of 8:03 PM MST on August 1, 2015

Scattered showers with isolated thunderstorms lingering tonight. Rainfall will generally be under a few tenths of an inch with the showers...and less than a quarter of an inch under the isolated storms. Localized higher amounts and gusty winds are possible under strongest storms.

×

10-Day Weather Forecast

×

Almanac

Astronomy

Aug. 01, 2015 Rise Set
Actual Time
Civil Twilight
Nautical Twilight
Astronomical Twilight
Moon
Length of Visible Light
Length of Day
Tomorrow will be .
, % of the Moon is Illuminated

Today's Extremes

State Highs State Lows

Community

WunderPhotos

Upload Photos

1,843,188 photos uploaded!

WunderBlogs® & News

Nearby

Air Quality

  Air Quality AQ Index Pollutant
Not available.

Snow Depth

Station Depth Elevation

Earthquake Activity

City Distance Mag. Time & Date
Minimum magnitude displayed is 2.5.

Coastal Water Temperatures

Place Temperature

Stations

Nearby Weather Stations

Station Location Temp. Windchill Dew Point Humidity Wind Precip. Elev Updated Type